createdAt,value
2023-02-05T00:02:11.299Z,2.89
2023-02-05T00:04:39.747Z,2.77
2023-02-05T00:07:07.977Z,2.72
2023-02-05T00:09:37.513Z,2.63
2023-02-05T00:12:05.416Z,2.53
2023-02-05T00:14:33.135Z,2.55
2023-02-05T00:17:00.857Z,2.57
2023-02-05T00:19:28.598Z,2.61
2023-02-05T00:21:56.304Z,2.63
2023-02-05T00:24:23.951Z,2.66
2023-02-05T00:26:51.630Z,2.60
2023-02-05T00:29:19.317Z,2.61
2023-02-05T00:31:50.553Z,2.64
2023-02-05T00:34:18.583Z,2.73
2023-02-05T00:36:46.353Z,2.77
2023-02-05T00:39:15.324Z,2.74
2023-02-05T00:41:43.050Z,2.75
2023-02-05T00:44:10.762Z,2.73
2023-02-05T00:46:38.497Z,2.68
2023-02-05T00:49:06.404Z,2.65
2023-02-05T00:51:34.071Z,2.61
2023-02-05T00:54:01.747Z,2.60
2023-02-05T00:56:29.424Z,2.60
2023-02-05T00:58:58.685Z,2.60
2023-02-05T01:01:26.588Z,2.65
2023-02-05T01:03:54.356Z,2.67
2023-02-05T01:06:22.260Z,2.75
2023-02-05T01:08:49.908Z,2.81
2023-02-05T01:11:17.719Z,2.84
2023-02-05T01:13:45.592Z,2.83
2023-02-05T01:16:13.340Z,2.83
2023-02-05T01:18:41.694Z,2.82
2023-02-05T01:21:09.414Z,2.81
2023-02-05T01:23:37.147Z,2.81
2023-02-05T01:26:04.848Z,2.81
2023-02-05T01:28:32.558Z,2.80
2023-02-05T01:31:00.381Z,2.79
2023-02-05T01:33:28.212Z,2.84
2023-02-05T01:35:56.017Z,2.90
2023-02-05T01:38:23.798Z,2.91
2023-02-05T01:40:51.525Z,2.98
2023-02-05T01:43:20.191Z,3.05
2023-02-05T01:46:03.082Z,3.08
2023-02-05T01:48:37.016Z,3.10
2023-02-05T01:51:12.921Z,3.07
2023-02-05T01:53:41.438Z,3.07
2023-02-05T01:56:18.523Z,3.06
2023-02-05T01:58:55.878Z,3.11
2023-02-05T02:01:24.777Z,3.13
2023-02-05T02:03:54.633Z,3.13
2023-02-05T02:06:22.383Z,3.11
2023-02-05T02:08:50.168Z,3.14
2023-02-05T02:11:22.671Z,3.21
2023-02-05T02:13:54.169Z,3.26
2023-02-05T02:16:22.391Z,3.29
2023-02-05T02:18:50.676Z,3.36
2023-02-05T02:21:40.187Z,3.42
2023-02-05T02:24:35.739Z,3.46
2023-02-05T02:27:27.977Z,3.54
2023-02-05T02:29:59.842Z,3.59
2023-02-05T02:32:38.421Z,3.59
2023-02-05T02:35:28.574Z,3.55
2023-02-05T02:38:13.621Z,3.54
2023-02-05T02:40:50.996Z,3.50
2023-02-05T02:43:26.648Z,3.50
2023-02-05T02:46:01.837Z,3.48
2023-02-05T02:48:32.006Z,3.44
2023-02-05T02:51:01.101Z,3.41
2023-02-05T02:53:35.556Z,3.35
2023-02-05T02:56:05.872Z,3.29
2023-02-05T02:58:43.932Z,3.24
2023-02-05T03:01:13.217Z,3.18
2023-02-05T03:03:49.212Z,3.10
2023-02-05T03:06:18.402Z,3.04
2023-02-05T03:08:57.172Z,2.94
2023-02-05T03:11:27.358Z,2.79
2023-02-05T03:13:57.505Z,2.74
2023-02-05T03:16:27.538Z,2.70
2023-02-05T03:18:57.304Z,2.70
2023-02-05T03:21:34.458Z,2.71
2023-02-05T03:24:02.263Z,2.65
2023-02-05T03:26:33.479Z,2.61
2023-02-05T03:29:10.021Z,2.58
2023-02-05T03:32:13.067Z,2.51
2023-02-05T03:34:59.483Z,2.35
2023-02-05T03:37:45.634Z,2.14
2023-02-05T03:40:40.880Z,2.09
2023-02-05T03:43:31.283Z,2.12
2023-02-05T03:46:14.775Z,2.06
2023-02-05T03:48:45.306Z,1.98
2023-02-05T03:51:30.830Z,1.96
2023-02-05T03:54:10.372Z,2.00
2023-02-05T03:56:45.629Z,2.06
2023-02-05T03:59:15.555Z,2.15
2023-02-05T04:01:45.716Z,2.17
2023-02-05T04:04:13.870Z,2.22
2023-02-05T04:06:41.798Z,2.19
2023-02-05T04:09:11.717Z,2.12
2023-02-05T04:11:39.761Z,2.06
2023-02-05T04:14:07.464Z,2.00
2023-02-05T04:16:35.241Z,1.92
2023-02-05T04:19:02.891Z,1.90
2023-02-05T04:21:30.583Z,1.84
2023-02-05T04:23:58.297Z,1.76
2023-02-05T04:26:26.249Z,1.72
2023-02-05T04:28:53.943Z,1.71
2023-02-05T04:31:21.652Z,1.69
2023-02-05T04:33:49.325Z,1.71
2023-02-05T04:36:16.975Z,1.78
2023-02-05T04:38:44.690Z,1.84
2023-02-05T04:41:12.388Z,1.89
2023-02-05T04:43:40.110Z,1.90
2023-02-05T04:46:11.872Z,1.94
2023-02-05T04:48:40.576Z,1.93
2023-02-05T04:51:10.182Z,1.91
2023-02-05T04:53:38.546Z,1.88
2023-02-05T04:56:17.942Z,1.85
2023-02-05T04:58:46.000Z,1.86
2023-02-05T05:01:16.203Z,1.85
2023-02-05T05:03:44.288Z,1.87
2023-02-05T05:06:12.967Z,1.87
2023-02-05T05:08:41.434Z,1.84
2023-02-05T05:11:12.481Z,1.76
2023-02-05T05:13:40.638Z,1.68
2023-02-05T05:16:09.345Z,1.62
2023-02-05T05:18:37.511Z,1.61
2023-02-05T05:21:06.689Z,1.56
2023-02-05T05:23:35.404Z,1.49
2023-02-05T05:26:09.293Z,1.49
2023-02-05T05:28:37.835Z,1.47
2023-02-05T05:31:21.002Z,1.43
2023-02-05T05:33:49.289Z,1.34
2023-02-05T05:36:17.846Z,1.29
2023-02-05T05:38:46.166Z,1.21
2023-02-05T05:41:50.644Z,1.13
2023-02-05T05:44:18.279Z,1.05
2023-02-05T05:46:45.930Z,0.99
2023-02-05T05:49:13.571Z,0.92
2023-02-05T05:51:41.280Z,0.91
2023-02-05T05:54:08.906Z,0.86
2023-02-05T05:56:37.327Z,0.78
2023-02-05T05:59:05.359Z,0.75
2023-02-05T06:01:33.112Z,0.78
2023-02-05T06:04:02.927Z,0.84
2023-02-05T06:06:31.734Z,0.90
2023-02-05T06:08:59.341Z,0.93
2023-02-05T06:11:27.076Z,0.92
2023-02-05T06:13:54.731Z,0.90
2023-02-05T06:16:22.460Z,0.92
2023-02-05T06:18:50.110Z,0.90
2023-02-05T06:21:18.007Z,0.92
2023-02-05T06:23:45.732Z,0.89
2023-02-05T06:26:13.420Z,0.85
2023-02-05T06:28:41.158Z,0.83
2023-02-05T06:31:09.175Z,0.84
2023-02-05T06:33:37.088Z,0.91
2023-02-05T06:36:05.108Z,0.96
2023-02-05T06:38:32.860Z,1.06
2023-02-05T06:41:00.679Z,1.15
2023-02-05T06:43:28.523Z,1.23
2023-02-05T06:45:56.896Z,1.32
2023-02-05T06:48:24.534Z,1.38
2023-02-05T06:50:52.179Z,1.50
2023-02-05T06:53:19.817Z,1.63
2023-02-05T06:55:47.484Z,1.67
2023-02-05T06:58:15.186Z,1.76
2023-02-05T07:00:43.065Z,1.77
2023-02-05T07:03:11.033Z,1.82
2023-02-05T07:05:38.725Z,1.87
2023-02-05T07:08:07.800Z,1.90
2023-02-05T07:10:35.486Z,1.95
2023-02-05T07:13:05.759Z,1.98
2023-02-05T07:15:34.043Z,1.99
2023-02-05T07:18:02.024Z,2.01
2023-02-05T07:20:29.759Z,1.99
2023-02-05T07:22:57.567Z,2.03
2023-02-05T07:25:25.171Z,2.13
2023-02-05T07:27:52.851Z,2.16
2023-02-05T07:30:20.556Z,2.20
2023-02-05T07:32:48.306Z,2.21
2023-02-05T07:35:16.163Z,2.20
2023-02-05T07:37:43.929Z,2.32
2023-02-05T07:40:12.075Z,2.35
2023-02-05T07:42:39.787Z,2.43
2023-02-05T07:45:08.740Z,2.47
2023-02-05T07:47:36.656Z,2.53
2023-02-05T07:50:05.993Z,2.50
2023-02-05T07:52:34.697Z,2.47
2023-02-05T07:55:02.430Z,2.44
2023-02-05T07:57:30.118Z,2.40
2023-02-05T07:59:57.809Z,2.39
2023-02-05T08:02:26.027Z,2.40
2023-02-05T08:04:53.980Z,2.42
2023-02-05T08:07:21.692Z,2.44
2023-02-05T08:09:49.337Z,2.44
2023-02-05T08:12:17.162Z,2.52
2023-02-05T08:14:45.095Z,2.61
2023-02-05T08:17:12.814Z,2.62
2023-02-05T08:19:41.398Z,2.63
2023-02-05T08:22:09.086Z,2.55
2023-02-05T08:24:36.807Z,2.55
2023-02-05T08:27:04.645Z,2.55
2023-02-05T08:29:32.298Z,2.57
2023-02-05T08:31:59.971Z,2.61
2023-02-05T08:34:27.778Z,2.69
2023-02-05T08:36:55.564Z,2.76
2023-02-05T08:39:23.193Z,2.86
2023-02-05T08:41:50.963Z,2.95
2023-02-05T08:44:18.773Z,3.06
2023-02-05T08:46:50.251Z,3.20
2023-02-05T08:49:18.367Z,3.37
2023-02-05T08:51:46.070Z,3.48
2023-02-05T08:54:16.255Z,3.60
2023-02-05T08:56:45.920Z,3.70
2023-02-05T08:59:13.837Z,3.82
2023-02-05T09:01:42.365Z,3.90
2023-02-05T09:04:16.826Z,4.00
2023-02-05T09:06:44.951Z,4.12
2023-02-05T09:09:13.095Z,4.22
2023-02-05T09:11:41.233Z,4.33
2023-02-05T09:14:09.728Z,4.38
2023-02-05T09:16:37.704Z,4.44
2023-02-05T09:19:05.452Z,4.52
2023-02-05T09:21:33.230Z,4.61
2023-02-05T09:24:01.251Z,4.71
2023-02-05T09:26:29.036Z,4.77
2023-02-05T09:28:56.834Z,4.78
2023-02-05T09:31:24.725Z,4.71
2023-02-05T09:33:52.471Z,4.65
2023-02-05T09:36:23.266Z,4.64
2023-02-05T09:39:04.946Z,4.58
2023-02-05T09:42:20.664Z,4.56
2023-02-05T09:44:57.282Z,4.59
2023-02-05T09:47:32.859Z,4.65
2023-02-05T09:50:33.110Z,4.74
2023-02-05T09:53:12.757Z,4.78
2023-02-05T09:55:46.004Z,4.76
2023-02-05T09:58:19.655Z,4.76
2023-02-05T10:00:54.907Z,4.68
2023-02-05T10:03:35.431Z,4.63
2023-02-05T10:06:22.399Z,4.66
2023-02-05T10:09:09.287Z,4.60
2023-02-05T10:12:07.881Z,4.59
2023-02-05T10:15:10.717Z,4.63
2023-02-05T10:18:10.139Z,4.63
2023-02-05T10:20:49.826Z,4.64
2023-02-05T10:23:28.224Z,4.59
2023-02-05T10:26:07.758Z,4.62
2023-02-05T10:28:35.404Z,4.56
2023-02-05T10:31:26.376Z,4.59
2023-02-05T10:34:01.034Z,4.57
2023-02-05T10:36:28.794Z,4.61
2023-02-05T10:38:58.394Z,4.61
2023-02-05T10:41:49.839Z,4.64
2023-02-05T10:44:31.197Z,4.61
2023-02-05T10:47:07.386Z,4.59
2023-02-05T10:49:55.196Z,4.63
2023-02-05T10:52:23.174Z,4.61
2023-02-05T10:54:52.095Z,4.64
2023-02-05T10:57:22.910Z,4.64
2023-02-05T10:59:58.109Z,4.62
2023-02-05T11:02:40.691Z,4.62
2023-02-05T11:05:25.750Z,4.61
2023-02-05T11:07:55.350Z,4.52
2023-02-05T11:10:29.590Z,4.45
2023-02-05T11:13:21.512Z,4.50
2023-02-05T11:16:00.533Z,4.40
2023-02-05T11:18:44.218Z,4.35
2023-02-05T11:21:12.975Z,4.37
2023-02-05T11:23:54.836Z,4.36
2023-02-05T11:26:25.784Z,4.35
2023-02-05T11:28:53.766Z,4.27
2023-02-05T11:31:36.172Z,4.23
2023-02-05T11:34:10.188Z,4.17
2023-02-05T11:36:51.112Z,4.11
2023-02-05T11:39:42.135Z,4.12
2023-02-05T11:42:26.386Z,4.17
2023-02-05T11:45:00.264Z,4.18
2023-02-05T11:47:32.601Z,4.20
2023-02-05T11:50:01.051Z,4.21
2023-02-05T11:52:31.932Z,4.31
2023-02-05T11:55:00.089Z,4.36
2023-02-05T11:57:35.054Z,4.35
2023-02-05T12:00:21.317Z,4.26
2023-02-05T12:02:54.856Z,4.36
2023-02-05T12:05:27.653Z,4.35
2023-02-05T12:08:01.331Z,4.28
2023-02-05T12:10:50.944Z,4.32
2023-02-05T12:13:30.669Z,4.34
2023-02-05T12:16:04.822Z,4.30
2023-02-05T12:19:00.055Z,4.26
2023-02-05T12:22:11.564Z,4.18
2023-02-05T12:24:58.148Z,4.12
2023-02-05T12:27:33.280Z,4.08
2023-02-05T12:30:03.732Z,4.04
2023-02-05T12:32:50.259Z,4.01
2023-02-05T12:35:17.879Z,4.08
2023-02-05T12:37:51.467Z,4.04
2023-02-05T12:40:54.327Z,3.93
2023-02-05T12:43:30.886Z,3.86
2023-02-05T12:46:09.708Z,3.76
2023-02-05T12:48:54.086Z,3.67
2023-02-05T12:51:30.917Z,3.65
2023-02-05T12:54:01.605Z,3.59
2023-02-05T12:56:54.056Z,3.55
2023-02-05T12:59:27.733Z,3.52
2023-02-05T13:02:01.140Z,3.47
2023-02-05T13:04:41.323Z,3.42
2023-02-05T13:07:35.602Z,3.41
2023-02-05T13:10:09.216Z,3.44
2023-02-05T13:12:44.438Z,3.46
2023-02-05T13:15:23.637Z,3.47
2023-02-05T13:17:59.177Z,3.52
2023-02-05T13:20:49.174Z,3.54
2023-02-05T13:23:36.475Z,3.55
2023-02-05T13:26:24.777Z,3.56
2023-02-05T13:28:58.481Z,3.59
2023-02-05T13:31:33.613Z,3.59
2023-02-05T13:34:07.083Z,3.59
2023-02-05T13:37:12.340Z,3.61
2023-02-05T13:40:09.726Z,3.62
2023-02-05T13:42:37.332Z,3.56
2023-02-05T13:45:23.620Z,3.54
2023-02-05T13:48:12.486Z,3.52
2023-02-05T13:51:08.208Z,3.52
2023-02-05T13:53:58.610Z,3.56
2023-02-05T13:56:35.244Z,3.57
2023-02-05T13:59:16.076Z,3.60
2023-02-05T14:02:36.243Z,3.57
2023-02-05T14:05:04.744Z,3.60
2023-02-05T14:07:36.561Z,3.59
2023-02-05T14:10:05.222Z,3.56
2023-02-05T14:12:37.250Z,3.49
2023-02-05T14:15:17.034Z,3.44
2023-02-05T14:17:44.636Z,3.40
2023-02-05T14:20:43.066Z,3.40
2023-02-05T14:23:35.153Z,3.39
2023-02-05T14:26:09.572Z,3.42
2023-02-05T14:28:46.494Z,3.41
2023-02-05T14:31:47.847Z,3.41
2023-02-05T14:34:34.255Z,3.45
2023-02-05T14:37:02.387Z,3.45
2023-02-05T14:39:35.329Z,3.46
2023-02-05T14:42:06.683Z,3.43
2023-02-05T14:44:41.751Z,3.39
2023-02-05T14:47:28.892Z,3.28
2023-02-05T14:50:08.592Z,3.27
2023-02-05T14:52:40.761Z,3.25
2023-02-05T14:55:14.432Z,3.25
2023-02-05T14:57:47.277Z,3.24
2023-02-05T15:00:32.390Z,3.17
2023-02-05T15:03:06.730Z,3.14
2023-02-05T15:05:46.873Z,3.13
2023-02-05T15:08:23.381Z,3.14
2023-02-05T15:10:56.003Z,3.16
2023-02-05T15:13:25.603Z,3.16
2023-02-05T15:16:18.066Z,3.18
2023-02-05T15:19:06.031Z,3.20
2023-02-05T15:21:50.646Z,3.21
2023-02-05T15:24:27.949Z,3.24
2023-02-05T15:27:03.453Z,3.17
2023-02-05T15:29:47.031Z,3.13
2023-02-05T15:32:25.572Z,3.06
2023-02-05T15:34:57.046Z,3.06
2023-02-05T15:37:43.216Z,3.07
2023-02-05T15:40:21.371Z,3.07
2023-02-05T15:42:53.264Z,2.99
2023-02-05T15:45:35.901Z,3.02
2023-02-05T15:48:12.896Z,3.02
2023-02-05T15:50:48.001Z,3.03
2023-02-05T15:53:42.938Z,3.06
2023-02-05T15:56:45.995Z,3.06
2023-02-05T15:59:31.498Z,3.08
2023-02-05T16:02:06.776Z,3.07
2023-02-05T16:04:38.483Z,3.06
2023-02-05T16:07:27.563Z,2.99
2023-02-05T16:09:57.675Z,3.05
2023-02-05T16:12:25.947Z,3.05
2023-02-05T16:15:05.869Z,3.03
2023-02-05T16:17:45.248Z,3.06
2023-02-05T16:20:28.911Z,3.05
2023-02-05T16:23:07.560Z,3.06
2023-02-05T16:25:53.808Z,3.01
2023-02-05T16:28:41.507Z,3.03
2023-02-05T16:31:16.552Z,3.06
2023-02-05T16:33:55.343Z,3.11
2023-02-05T16:36:30.398Z,3.16
2023-02-05T16:39:04.314Z,3.17
2023-02-05T16:41:38.994Z,3.21
2023-02-05T16:44:08.826Z,3.18
2023-02-05T16:46:38.046Z,3.20
2023-02-05T16:49:26.930Z,3.19
2023-02-05T16:51:57.361Z,3.19
2023-02-05T16:54:43.313Z,3.18
2023-02-05T16:57:24.869Z,3.19
2023-02-05T17:00:03.892Z,3.18
2023-02-05T17:02:37.625Z,3.19
2023-02-05T17:05:09.253Z,3.19
2023-02-05T17:07:37.211Z,3.21
2023-02-05T17:10:18.219Z,3.19
2023-02-05T17:12:57.762Z,3.19
2023-02-05T17:15:34.924Z,3.18
2023-02-05T17:18:20.036Z,3.20
2023-02-05T17:20:47.976Z,3.24
2023-02-05T17:23:17.740Z,3.27
2023-02-05T17:25:48.277Z,3.28
2023-02-05T17:28:19.608Z,3.31
2023-02-05T17:30:49.727Z,3.33
2023-02-05T17:33:21.569Z,3.39
2023-02-05T17:35:49.372Z,3.43
2023-02-05T17:38:18.535Z,3.47
2023-02-05T17:40:46.297Z,3.53
2023-02-05T17:43:14.861Z,3.56
2023-02-05T17:45:45.242Z,3.52
2023-02-05T17:48:12.966Z,3.52
2023-02-05T17:50:40.628Z,3.52
2023-02-05T17:53:08.337Z,3.48
2023-02-05T17:55:36.007Z,3.50
2023-02-05T17:58:03.762Z,3.48
2023-02-05T18:00:34.666Z,3.46
2023-02-05T18:03:02.557Z,3.42
2023-02-05T18:05:30.273Z,3.38
2023-02-05T18:07:59.655Z,3.40
2023-02-05T18:10:31.147Z,3.44
2023-02-05T18:12:59.467Z,3.45
2023-02-05T18:15:28.004Z,3.52
2023-02-05T18:17:55.746Z,3.53
2023-02-05T18:20:23.822Z,3.53
2023-02-05T18:22:51.635Z,3.58
2023-02-05T18:25:19.529Z,3.59
2023-02-05T18:27:48.773Z,3.56
2023-02-05T18:30:16.584Z,3.54
2023-02-05T18:32:44.274Z,3.60
2023-02-05T18:35:15.454Z,3.62
2023-02-05T18:37:46.255Z,3.60
2023-02-05T18:40:16.145Z,3.60
2023-02-05T18:42:48.022Z,3.59
2023-02-05T18:45:15.772Z,3.62
2023-02-05T18:47:43.529Z,3.60
2023-02-05T18:50:11.625Z,3.61
2023-02-05T18:52:39.345Z,3.55
2023-02-05T18:55:08.692Z,3.51
2023-02-05T18:57:36.544Z,3.41
2023-02-05T19:00:05.553Z,3.34
2023-02-05T19:02:35.202Z,3.31
2023-02-05T19:05:03.858Z,3.27
2023-02-05T19:07:31.589Z,3.21
2023-02-05T19:10:00.440Z,3.18
2023-02-05T19:12:28.269Z,3.14
2023-02-05T19:14:55.951Z,3.14
2023-02-05T19:17:26.959Z,3.17
2023-02-05T19:19:55.076Z,3.12
2023-02-05T19:22:23.166Z,3.10
2023-02-05T19:24:50.838Z,3.09
2023-02-05T19:27:19.281Z,3.10
2023-02-05T19:29:47.001Z,3.06
2023-02-05T19:32:14.788Z,3.03
2023-02-05T19:34:44.279Z,3.07
2023-02-05T19:37:12.462Z,3.09
2023-02-05T19:39:40.249Z,3.12
2023-02-05T19:42:08.332Z,3.14
2023-02-05T19:44:36.062Z,3.10
2023-02-05T19:47:03.844Z,3.08
2023-02-05T19:49:31.681Z,3.06
2023-02-05T19:52:00.938Z,3.11
2023-02-05T19:54:30.558Z,3.15
2023-02-05T19:56:58.731Z,3.13
2023-02-05T19:59:26.676Z,3.20
2023-02-05T20:01:55.167Z,3.22
2023-02-05T20:04:29.623Z,3.25
2023-02-05T20:06:59.851Z,3.31
2023-02-05T20:09:29.230Z,3.34
2023-02-05T20:11:56.913Z,3.34
2023-02-05T20:14:25.637Z,3.37
2023-02-05T20:16:53.750Z,3.40
2023-02-05T20:19:21.529Z,3.43
2023-02-05T20:21:49.857Z,3.47
2023-02-05T20:24:18.183Z,3.48
2023-02-05T20:26:49.629Z,3.52
2023-02-05T20:29:36.242Z,3.52
2023-02-05T20:32:04.403Z,3.56
2023-02-05T20:34:35.327Z,3.57
2023-02-05T20:37:07.004Z,3.54
2023-02-05T20:39:36.366Z,3.57
2023-02-05T20:42:04.365Z,3.61
2023-02-05T20:44:33.443Z,3.63
2023-02-05T20:47:01.327Z,3.58
2023-02-05T20:49:29.753Z,3.52
2023-02-05T20:51:57.643Z,3.47
2023-02-05T20:54:25.421Z,3.40
2023-02-05T20:56:58.040Z,3.32
2023-02-05T20:59:35.713Z,3.30
2023-02-05T21:02:03.923Z,3.23
2023-02-05T21:04:32.171Z,3.19
2023-02-05T21:07:00.112Z,3.15
2023-02-05T21:09:28.156Z,3.14
2023-02-05T21:11:56.724Z,3.16
2023-02-05T21:14:25.012Z,3.15
2023-02-05T21:16:53.128Z,3.17
2023-02-05T21:19:21.038Z,3.20
2023-02-05T21:21:50.827Z,3.20
2023-02-05T21:24:19.280Z,3.22
2023-02-05T21:26:49.110Z,3.24
2023-02-05T21:29:20.795Z,3.29
2023-02-05T21:31:54.865Z,3.31
2023-02-05T21:34:25.418Z,3.33
2023-02-05T21:36:53.936Z,3.34
2023-02-05T21:39:22.918Z,3.36
2023-02-05T21:41:55.129Z,3.37
2023-02-05T21:44:23.266Z,3.37
2023-02-05T21:46:51.031Z,3.34
2023-02-05T21:49:18.878Z,3.31
2023-02-05T21:51:46.882Z,3.34
2023-02-05T21:54:14.983Z,3.37
2023-02-05T21:56:44.119Z,3.33
2023-02-05T21:59:13.436Z,3.29
2023-02-05T22:01:43.148Z,3.25
2023-02-05T22:04:16.782Z,3.24
2023-02-05T22:06:45.312Z,3.21
2023-02-05T22:09:15.838Z,3.27
2023-02-05T22:11:44.619Z,3.29
2023-02-05T22:14:14.094Z,3.28
2023-02-05T22:16:42.118Z,3.25
2023-02-05T22:19:10.470Z,3.28
2023-02-05T22:21:41.259Z,3.33
2023-02-05T22:24:12.453Z,3.33
2023-02-05T22:26:40.854Z,3.32
2023-02-05T22:29:11.686Z,3.35
2023-02-05T22:31:39.441Z,3.40
2023-02-05T22:34:07.123Z,3.43
2023-02-05T22:36:36.066Z,3.45
2023-02-05T22:39:05.635Z,3.42
2023-02-05T22:41:38.476Z,3.43
2023-02-05T22:44:07.645Z,3.42
2023-02-05T22:46:39.076Z,3.40
2023-02-05T22:49:07.010Z,3.35
2023-02-05T22:51:37.716Z,3.34
2023-02-05T22:54:06.747Z,3.31
2023-02-05T22:56:36.516Z,3.31
2023-02-05T22:59:04.181Z,3.29
2023-02-05T23:01:34.868Z,3.30
2023-02-05T23:04:04.135Z,3.31
2023-02-05T23:06:35.048Z,3.29
2023-02-05T23:09:29.092Z,3.28
2023-02-05T23:11:56.942Z,3.25
2023-02-05T23:14:24.790Z,3.26
2023-02-05T23:16:52.463Z,3.21
2023-02-05T23:19:23.404Z,3.21
2023-02-05T23:21:51.278Z,3.18
2023-02-05T23:26:51.842Z,3.22
2023-02-05T23:29:20.264Z,3.21
2023-02-05T23:31:48.312Z,3.19
2023-02-05T23:34:15.997Z,3.20
2023-02-05T23:36:43.714Z,3.21
2023-02-05T23:39:11.724Z,3.21
2023-02-05T23:41:40.748Z,3.21
2023-02-05T23:44:21.329Z,3.20
2023-02-05T23:46:51.111Z,3.17
2023-02-05T23:49:24.264Z,3.13
2023-02-05T23:51:54.709Z,3.14
2023-02-05T23:54:24.245Z,3.11
2023-02-05T23:56:53.294Z,3.10
2023-02-05T23:59:21.073Z,3.07
